createdAt,value
2019-03-16T00:00:01.147Z,2.6
2019-03-16T00:00:52.016Z,2.6
2019-03-16T00:01:56.081Z,2.7
2019-03-16T00:02:38.726Z,2.9
2019-03-16T00:03:29.596Z,3
2019-03-16T00:04:20.460Z,3
2019-03-16T00:05:11.364Z,2.9
2019-03-16T00:06:02.231Z,2.9
2019-03-16T00:06:53.101Z,3
2019-03-16T00:07:44.002Z,3.1
2019-03-16T00:08:34.876Z,3.2
2019-03-16T00:09:25.739Z,3.2
2019-03-16T00:10:16.604Z,3.2
2019-03-16T00:11:07.474Z,3.4
2019-03-16T00:11:58.421Z,3.6
2019-03-16T00:12:49.423Z,3.7
2019-03-16T00:13:40.289Z,3.7
2019-03-16T00:14:31.162Z,3.7
2019-03-16T00:15:22.039Z,3.8
2019-03-16T00:16:12.917Z,3.9
2019-03-16T00:17:03.793Z,3.9
2019-03-16T00:17:55.738Z,4
2019-03-16T00:18:46.605Z,4
2019-03-16T00:19:37.472Z,4
2019-03-16T00:20:28.344Z,4
2019-03-16T00:21:19.215Z,4
2019-03-16T00:22:10.083Z,4
2019-03-16T00:23:00.988Z,4
2019-03-16T00:23:51.864Z,4
2019-03-16T00:24:42.732Z,4
2019-03-16T00:25:33.603Z,4
2019-03-16T00:26:24.510Z,4
2019-03-16T00:27:15.384Z,3.9
2019-03-16T00:28:06.289Z,3.8
2019-03-16T00:28:57.163Z,3.7
2019-03-16T00:29:48.031Z,3.6
2019-03-16T00:30:38.897Z,3.5
2019-03-16T00:31:29.760Z,3.4
2019-03-16T00:32:20.628Z,3.2
2019-03-16T00:33:11.533Z,3.1
2019-03-16T00:34:02.401Z,3
2019-03-16T00:34:53.265Z,3
2019-03-16T00:35:44.130Z,3
2019-03-16T00:36:34.996Z,3
2019-03-16T00:37:25.866Z,2.9
2019-03-16T00:38:16.776Z,2.9
2019-03-16T00:39:07.647Z,2.9
2019-03-16T00:39:58.518Z,2.9
2019-03-16T00:40:49.392Z,3
2019-03-16T00:41:40.260Z,3.1
2019-03-16T00:42:31.129Z,3.2
2019-03-16T00:43:22.033Z,3.4
2019-03-16T00:44:13.907Z,3.3
2019-03-16T00:45:05.016Z,3.2
2019-03-16T00:45:55.882Z,3.2
2019-03-16T00:46:46.751Z,3.1
2019-03-16T00:47:37.621Z,2.9
2019-03-16T00:48:28.520Z,2.9
2019-03-16T00:49:19.385Z,2.9
2019-03-16T00:50:10.253Z,3
2019-03-16T00:51:01.122Z,3.2
2019-03-16T00:51:51.987Z,3.2
2019-03-16T00:52:42.853Z,3.4
2019-03-16T00:53:33.750Z,3.4
2019-03-16T00:54:24.615Z,3.5
2019-03-16T00:55:15.732Z,3.5
2019-03-16T00:56:06.599Z,3.5
2019-03-16T00:56:57.470Z,3.6
2019-03-16T00:57:48.346Z,3.6
2019-03-16T00:58:39.273Z,3.6
2019-03-16T00:59:30.143Z,3.5
2019-03-16T01:00:21.007Z,3.5
2019-03-16T01:01:11.878Z,3.4
2019-03-16T01:02:02.745Z,3.3
2019-03-16T01:02:53.613Z,3.2
2019-03-16T01:03:44.506Z,3.2
2019-03-16T01:04:35.376Z,3.2
2019-03-16T01:05:26.249Z,3.1
2019-03-16T01:06:17.121Z,2.9
2019-03-16T01:07:07.991Z,2.8
2019-03-16T01:07:58.865Z,2.7
2019-03-16T01:08:49.761Z,2.6
2019-03-16T01:09:43.458Z,2.4
2019-03-16T01:10:34.585Z,2.2
2019-03-16T01:11:25.457Z,2.2
2019-03-16T01:12:16.334Z,2.1
2019-03-16T01:13:07.205Z,2.1
2019-03-16T01:13:58.104Z,2
2019-03-16T01:14:48.978Z,2
2019-03-16T01:15:39.843Z,1.9
2019-03-16T01:16:30.719Z,2
2019-03-16T01:17:21.591Z,2
2019-03-16T01:18:12.465Z,2
2019-03-16T01:19:03.362Z,2
2019-03-16T01:19:54.227Z,1.9
2019-03-16T01:20:45.092Z,1.9
2019-03-16T01:21:36.043Z,1.9
2019-03-16T01:22:26.915Z,2
2019-03-16T01:23:17.990Z,2
2019-03-16T01:24:08.931Z,2.1
2019-03-16T01:24:59.804Z,2.2
2019-03-16T01:25:50.672Z,2.2
2019-03-16T01:26:41.538Z,2.2
2019-03-16T01:27:32.411Z,2.2
2019-03-16T01:28:23.283Z,2.3
2019-03-16T01:29:14.255Z,2.3
2019-03-16T01:30:05.144Z,2.3
2019-03-16T01:30:56.010Z,2.2
2019-03-16T01:31:46.875Z,2.3
2019-03-16T01:32:40.697Z,2.4
2019-03-16T01:33:31.894Z,2.4
2019-03-16T01:34:22.791Z,2.4
2019-03-16T01:35:13.653Z,2.3
2019-03-16T01:36:04.520Z,2.3
2019-03-16T01:36:55.389Z,2.2
2019-03-16T01:37:46.270Z,2.3
2019-03-16T01:38:37.148Z,2.4
2019-03-16T01:39:28.054Z,2.5
2019-03-16T01:40:18.927Z,2.5
2019-03-16T01:41:09.801Z,2.6
2019-03-16T01:42:00.683Z,2.7
2019-03-16T01:42:51.557Z,2.9
2019-03-16T01:43:42.426Z,3.1
2019-03-16T01:44:33.321Z,3.2
2019-03-16T01:45:24.198Z,3.2
2019-03-16T01:46:15.113Z,3.2
2019-03-16T01:47:05.984Z,3.2
2019-03-16T01:47:56.850Z,3.2
2019-03-16T01:48:47.716Z,3.2
2019-03-16T01:49:38.607Z,3.2
2019-03-16T01:50:29.475Z,3.2
2019-03-16T01:51:20.342Z,3.2
2019-03-16T01:52:11.212Z,3.1
2019-03-16T01:53:02.078Z,3
2019-03-16T01:53:52.943Z,2.8
2019-03-16T01:54:43.844Z,2.7
2019-03-16T01:55:34.716Z,2.6
2019-03-16T01:56:25.586Z,2.4
2019-03-16T01:57:16.452Z,2.3
2019-03-16T01:58:07.317Z,2.2
2019-03-16T01:58:58.181Z,2.2
2019-03-16T01:59:49.082Z,2.1
2019-03-16T02:00:39.948Z,2.1
2019-03-16T02:01:30.817Z,2.1
2019-03-16T02:02:21.685Z,2.1
2019-03-16T02:03:12.553Z,2.1
2019-03-16T02:04:03.419Z,2
2019-03-16T02:04:54.317Z,2
2019-03-16T02:05:45.187Z,1.9
2019-03-16T02:06:36.053Z,1.9
2019-03-16T02:07:26.918Z,1.9
2019-03-16T02:08:17.799Z,1.9
2019-03-16T02:09:08.670Z,1.8
2019-03-16T02:09:59.565Z,1.8
2019-03-16T02:10:50.432Z,1.8
2019-03-16T02:11:41.302Z,1.9
2019-03-16T02:12:32.168Z,1.9
2019-03-16T02:13:23.031Z,2
2019-03-16T02:14:13.893Z,1.9
2019-03-16T02:15:04.803Z,1.9
2019-03-16T02:15:55.667Z,1.9
2019-03-16T02:16:46.538Z,1.9
2019-03-16T02:17:37.408Z,1.9
2019-03-16T02:18:28.278Z,1.8
2019-03-16T02:19:19.150Z,1.8
2019-03-16T02:20:10.051Z,1.9
2019-03-16T02:21:00.930Z,1.9
2019-03-16T02:21:51.921Z,1.9
2019-03-16T02:22:42.796Z,1.9
2019-03-16T02:23:33.663Z,1.9
2019-03-16T02:24:24.550Z,1.9
2019-03-16T02:25:15.450Z,2
2019-03-16T02:26:06.314Z,2.1
2019-03-16T02:26:57.182Z,2.1
2019-03-16T02:27:48.049Z,2.1
2019-03-16T02:28:39.011Z,2.1
2019-03-16T02:29:29.877Z,2.1
2019-03-16T02:30:20.793Z,2.2
2019-03-16T02:31:11.668Z,2.1
2019-03-16T02:32:02.544Z,2.1
2019-03-16T02:32:53.411Z,2.1
2019-03-16T02:33:44.285Z,2.1
2019-03-16T02:34:35.153Z,2.2
2019-03-16T02:35:31.054Z,2.2
2019-03-16T02:36:21.926Z,2.2
2019-03-16T02:37:12.795Z,2.2
2019-03-16T02:38:03.663Z,2.2
2019-03-16T02:38:54.558Z,2.3
2019-03-16T02:39:45.426Z,2.3
2019-03-16T02:40:36.334Z,2.3
2019-03-16T02:41:27.214Z,2.4
2019-03-16T02:42:18.082Z,2.5
2019-03-16T02:43:08.952Z,2.5
2019-03-16T02:43:59.823Z,2.6
2019-03-16T02:44:50.688Z,2.6
2019-03-16T02:45:41.585Z,2.6
2019-03-16T02:46:32.457Z,2.7
2019-03-16T02:47:23.326Z,2.9
2019-03-16T02:48:14.197Z,2.9
2019-03-16T02:49:05.066Z,2.9
2019-03-16T02:49:56.015Z,2.9
2019-03-16T02:50:46.936Z,2.9
2019-03-16T02:51:37.803Z,2.9
2019-03-16T02:52:28.674Z,2.9
2019-03-16T02:53:19.542Z,3
2019-03-16T02:54:10.412Z,3.1
2019-03-16T02:55:01.291Z,3.1
2019-03-16T02:55:52.220Z,3.1
2019-03-16T02:56:43.108Z,3.1
2019-03-16T02:57:33.982Z,3.1
2019-03-16T02:58:24.860Z,3
2019-03-16T02:59:15.734Z,2.9
2019-03-16T03:00:06.601Z,2.7
2019-03-16T03:00:57.496Z,2.7
2019-03-16T03:01:48.369Z,2.6
2019-03-16T03:02:39.238Z,2.7
2019-03-16T03:03:30.351Z,2.7
2019-03-16T03:04:21.269Z,2.7
2019-03-16T03:05:12.137Z,2.7
2019-03-16T03:06:03.045Z,2.8
2019-03-16T03:06:53.931Z,2.9
2019-03-16T03:07:44.827Z,2.9
2019-03-16T03:08:35.699Z,3
2019-03-16T03:09:26.570Z,3.1
2019-03-16T03:10:17.445Z,3.2
2019-03-16T03:11:08.359Z,3.2
2019-03-16T03:11:59.235Z,3.3
2019-03-16T03:12:50.109Z,3.4
2019-03-16T03:13:40.984Z,3.4
2019-03-16T03:14:31.853Z,3.4
2019-03-16T03:15:22.725Z,3.4
2019-03-16T03:16:13.623Z,3.4
2019-03-16T03:17:04.493Z,3.4
2019-03-16T03:17:55.368Z,3.5
2019-03-16T03:18:49.483Z,3.5
2019-03-16T03:19:40.658Z,3.4
2019-03-16T03:20:31.552Z,3.4
2019-03-16T03:21:22.441Z,3.5
2019-03-16T03:22:13.313Z,3.5
2019-03-16T03:23:04.202Z,3.5
2019-03-16T03:23:55.089Z,3.5
2019-03-16T03:24:45.955Z,3.4
2019-03-16T03:25:36.871Z,3.4
2019-03-16T03:26:27.767Z,3.4
2019-03-16T03:27:18.637Z,3.4
2019-03-16T03:28:09.511Z,3.4
2019-03-16T03:29:00.381Z,3.4
2019-03-16T03:29:51.251Z,3.4
2019-03-16T03:30:42.153Z,3.4
2019-03-16T03:31:33.033Z,3.2
2019-03-16T03:32:23.908Z,3.1
2019-03-16T03:33:15.017Z,3.1
2019-03-16T03:34:05.946Z,3
2019-03-16T03:34:56.822Z,2.9
2019-03-16T03:35:47.721Z,2.9
2019-03-16T03:36:38.601Z,2.8
2019-03-16T03:37:29.488Z,2.8
2019-03-16T03:38:20.362Z,2.7
2019-03-16T03:39:11.232Z,2.8
2019-03-16T03:40:02.096Z,2.9
2019-03-16T03:40:53.004Z,2.9
2019-03-16T03:41:43.871Z,2.9
2019-03-16T03:42:34.741Z,2.9
2019-03-16T03:43:25.609Z,2.9
2019-03-16T03:44:16.482Z,3
2019-03-16T03:45:07.489Z,3.1
2019-03-16T03:45:58.385Z,3
2019-03-16T03:46:49.255Z,3
2019-03-16T03:47:40.125Z,3
2019-03-16T03:48:31.002Z,2.9
2019-03-16T03:49:21.884Z,2.9
2019-03-16T03:50:12.761Z,2.9
2019-03-16T03:51:03.676Z,2.9
2019-03-16T03:51:54.543Z,2.9
2019-03-16T03:52:45.417Z,2.8
2019-03-16T03:53:36.289Z,2.7
2019-03-16T03:54:27.162Z,2.6
2019-03-16T03:55:18.029Z,2.6
2019-03-16T03:56:08.932Z,2.6
2019-03-16T03:56:59.814Z,2.6
2019-03-16T03:57:50.680Z,2.5
2019-03-16T03:58:41.553Z,2.5
2019-03-16T03:59:32.421Z,2.6
2019-03-16T04:00:23.291Z,2.6
2019-03-16T04:01:14.192Z,2.5
2019-03-16T04:02:05.067Z,2.6
2019-03-16T04:02:55.948Z,2.6
2019-03-16T04:03:46.823Z,2.6
2019-03-16T04:04:37.696Z,2.5
2019-03-16T04:05:28.570Z,2.5
2019-03-16T04:06:19.475Z,2.6
2019-03-16T04:07:10.347Z,2.6
2019-03-16T04:08:01.230Z,2.6
2019-03-16T04:08:52.105Z,2.6
2019-03-16T04:09:42.991Z,2.6
2019-03-16T04:10:33.871Z,2.6
2019-03-16T04:11:24.766Z,2.6
2019-03-16T04:12:15.643Z,2.7
2019-03-16T04:13:06.512Z,2.7
2019-03-16T04:13:57.387Z,2.7
2019-03-16T04:14:48.250Z,2.8
2019-03-16T04:15:39.125Z,2.9
2019-03-16T04:16:30.042Z,2.9
2019-03-16T04:17:20.940Z,2.9
2019-03-16T04:18:11.813Z,2.9
2019-03-16T04:19:02.686Z,2.9
2019-03-16T04:19:53.563Z,2.8
2019-03-16T04:20:44.432Z,2.8
2019-03-16T04:21:35.332Z,2.7
2019-03-16T04:22:26.198Z,2.8
2019-03-16T04:23:17.068Z,2.7
2019-03-16T04:24:07.944Z,2.7
2019-03-16T04:24:58.817Z,2.7
2019-03-16T04:25:49.698Z,2.7
2019-03-16T04:26:40.591Z,2.8
2019-03-16T04:27:31.484Z,2.9
2019-03-16T04:28:22.374Z,2.9
2019-03-16T04:29:13.243Z,2.9
2019-03-16T04:30:04.113Z,3
2019-03-16T04:30:54.987Z,3
2019-03-16T04:31:45.891Z,3.1
2019-03-16T04:32:36.761Z,3
2019-03-16T04:33:27.633Z,3
2019-03-16T04:34:28.307Z,2.9
2019-03-16T04:35:14.309Z,2.9
2019-03-16T04:36:05.188Z,2.9
2019-03-16T04:36:56.083Z,2.8
2019-03-16T04:37:46.949Z,2.7
2019-03-16T04:38:37.818Z,2.7
2019-03-16T04:39:28.690Z,2.7
2019-03-16T04:40:19.558Z,2.7
2019-03-16T04:41:10.428Z,2.7
2019-03-16T04:42:01.329Z,2.7
2019-03-16T04:42:52.203Z,2.6
2019-03-16T04:43:43.074Z,2.6
2019-03-16T04:44:33.942Z,2.6
2019-03-16T04:45:24.811Z,2.6
2019-03-16T04:46:15.680Z,2.6
2019-03-16T04:47:06.578Z,2.6
2019-03-16T04:47:57.448Z,2.6
2019-03-16T04:48:48.319Z,2.5
2019-03-16T04:49:39.187Z,2.5
2019-03-16T04:50:30.054Z,2.6
2019-03-16T04:51:20.931Z,2.7
2019-03-16T04:52:11.832Z,2.7
2019-03-16T04:53:02.700Z,2.7
2019-03-16T04:53:53.572Z,2.8
2019-03-16T04:54:44.436Z,2.9
2019-03-16T04:55:35.302Z,2.9
2019-03-16T04:56:26.173Z,3.1
2019-03-16T04:57:17.079Z,3.1
2019-03-16T04:58:07.957Z,3.1
2019-03-16T04:58:58.832Z,3.1
2019-03-16T04:59:49.710Z,3.1
2019-03-16T05:00:40.579Z,3.1
2019-03-16T05:01:31.454Z,3.1
2019-03-16T05:02:22.367Z,3
2019-03-16T05:03:13.243Z,2.9
2019-03-16T05:04:04.111Z,2.7
2019-03-16T05:04:54.978Z,2.7
2019-03-16T05:05:45.845Z,2.7
2019-03-16T05:06:36.710Z,2.7
2019-03-16T05:07:27.609Z,2.6
2019-03-16T05:08:18.497Z,2.6
2019-03-16T05:09:09.373Z,2.5
2019-03-16T05:10:00.300Z,2.5
2019-03-16T05:10:51.277Z,2.4
2019-03-16T05:11:42.148Z,2.4
2019-03-16T05:12:33.055Z,2.4
2019-03-16T05:13:23.930Z,2.4
2019-03-16T05:14:14.795Z,2.4
2019-03-16T05:15:05.668Z,2.3
2019-03-16T05:15:56.536Z,2.3
2019-03-16T05:16:47.404Z,2.4
2019-03-16T05:17:38.303Z,2.4
2019-03-16T05:18:29.175Z,2.4
2019-03-16T05:19:20.044Z,2.4
2019-03-16T05:20:10.913Z,2.4
2019-03-16T05:21:01.789Z,2.5
2019-03-16T05:21:52.656Z,2.4
2019-03-16T05:22:43.559Z,2.4
2019-03-16T05:23:34.428Z,2.4
2019-03-16T05:24:25.302Z,2.5
2019-03-16T05:25:16.173Z,2.6
2019-03-16T05:26:07.047Z,2.6
2019-03-16T05:26:57.912Z,2.7
2019-03-16T05:27:48.804Z,2.8
2019-03-16T05:28:39.674Z,2.9
2019-03-16T05:29:30.543Z,2.9
2019-03-16T05:30:21.409Z,2.9
2019-03-16T05:31:12.284Z,2.9
2019-03-16T05:32:03.150Z,2.9
2019-03-16T05:32:54.044Z,2.9
2019-03-16T05:33:44.912Z,2.9
2019-03-16T05:34:35.792Z,2.9
2019-03-16T05:35:26.662Z,3
2019-03-16T05:36:17.532Z,3
2019-03-16T05:37:08.402Z,2.9
2019-03-16T05:37:59.303Z,2.9
2019-03-16T05:38:50.169Z,2.9
2019-03-16T05:39:41.041Z,2.8
2019-03-16T05:40:31.911Z,2.7
2019-03-16T05:41:22.783Z,2.7
2019-03-16T05:42:13.660Z,2.7
2019-03-16T05:43:04.557Z,2.7
2019-03-16T05:43:55.424Z,2.7
2019-03-16T05:44:46.297Z,2.7
2019-03-16T05:45:37.169Z,2.6
2019-03-16T05:46:28.037Z,2.6
2019-03-16T05:47:18.900Z,2.7
2019-03-16T05:48:09.798Z,2.7
2019-03-16T05:49:00.670Z,2.6
2019-03-16T05:49:51.539Z,2.6
2019-03-16T05:50:42.412Z,2.6
2019-03-16T05:51:33.282Z,2.6
2019-03-16T05:52:24.152Z,2.6
2019-03-16T05:53:15.079Z,2.6
2019-03-16T05:54:05.949Z,2.6
2019-03-16T05:54:56.817Z,2.7
2019-03-16T05:55:47.685Z,2.7
2019-03-16T05:56:38.554Z,2.7
2019-03-16T05:57:29.427Z,2.7
2019-03-16T05:58:20.295Z,2.7
2019-03-16T05:59:11.310Z,2.7
2019-03-16T06:00:02.197Z,2.7
2019-03-16T06:00:53.069Z,2.8
2019-03-16T06:01:43.935Z,2.8
2019-03-16T06:02:34.804Z,2.9
2019-03-16T06:03:25.696Z,2.9
2019-03-16T06:04:16.570Z,2.9
2019-03-16T06:05:10.714Z,2.9
2019-03-16T06:06:02.070Z,2.9
2019-03-16T06:06:52.938Z,3
2019-03-16T06:07:43.811Z,3
2019-03-16T06:08:34.706Z,3
2019-03-16T06:09:25.579Z,3.1
2019-03-16T06:10:16.446Z,3.1
2019-03-16T06:11:07.314Z,3.1
2019-03-16T06:11:58.183Z,3.1
2019-03-16T06:12:54.055Z,3.2
2019-03-16T06:13:44.952Z,3.2
2019-03-16T06:14:35.846Z,3.2
2019-03-16T06:15:26.716Z,3.2
2019-03-16T06:16:17.585Z,3.3
2019-03-16T06:17:08.453Z,3.3
2019-03-16T06:17:59.323Z,3.3
2019-03-16T06:18:50.218Z,3.3
2019-03-16T06:19:41.089Z,3.4
2019-03-16T06:20:31.969Z,3.4
2019-03-16T06:21:22.846Z,3.4
2019-03-16T06:22:13.714Z,3.4
2019-03-16T06:23:04.589Z,3.4
2019-03-16T06:23:55.491Z,3.4
2019-03-16T06:24:46.364Z,3.4
2019-03-16T06:25:37.243Z,3.5
2019-03-16T06:26:28.109Z,3.5
2019-03-16T06:27:18.988Z,3.6
2019-03-16T06:28:09.858Z,3.6
2019-03-16T06:29:00.760Z,3.7
2019-03-16T06:29:51.630Z,3.7
2019-03-16T06:30:42.497Z,3.7
2019-03-16T06:31:33.384Z,3.7
2019-03-16T06:32:24.254Z,3.7
2019-03-16T06:33:15.125Z,3.7
2019-03-16T06:34:06.024Z,3.7
2019-03-16T06:34:56.903Z,3.8
2019-03-16T06:35:47.768Z,3.8
2019-03-16T06:36:38.635Z,3.9
2019-03-16T06:37:29.501Z,4.1
2019-03-16T06:38:20.375Z,4.2
2019-03-16T06:39:11.291Z,4.2
2019-03-16T06:40:02.174Z,4.2
2019-03-16T06:40:53.044Z,4.2
2019-03-16T06:41:43.913Z,4.2
2019-03-16T06:42:34.783Z,4.2
2019-03-16T06:43:25.658Z,4.2
2019-03-16T06:44:16.558Z,4.2
2019-03-16T06:45:07.432Z,4.2
2019-03-16T06:45:58.302Z,4.2
2019-03-16T06:46:49.192Z,4.3
2019-03-16T06:47:40.067Z,4.4
2019-03-16T06:48:30.946Z,4.5
2019-03-16T06:49:21.847Z,4.6
2019-03-16T06:50:12.734Z,4.6
2019-03-16T06:51:03.608Z,4.7
2019-03-16T06:51:54.475Z,4.7
2019-03-16T06:52:45.345Z,4.7
2019-03-16T06:53:36.223Z,4.6
2019-03-16T06:54:27.145Z,4.6
2019-03-16T06:55:18.014Z,4.6
2019-03-16T06:56:08.893Z,4.6
2019-03-16T06:56:59.764Z,4.6
2019-03-16T06:57:50.634Z,4.7
2019-03-16T06:58:41.496Z,4.9
2019-03-16T06:59:32.361Z,4.9
2019-03-16T07:00:23.271Z,4.9
2019-03-16T07:01:14.144Z,4.9
2019-03-16T07:02:05.014Z,4.9
2019-03-16T07:02:55.880Z,4.9
2019-03-16T07:03:46.773Z,4.9
2019-03-16T07:04:37.663Z,4.9
2019-03-16T07:05:37.465Z,4.9
2019-03-16T07:06:24.395Z,4.9
2019-03-16T07:07:15.263Z,4.9
2019-03-16T07:08:06.141Z,4.9
2019-03-16T07:08:57.011Z,4.9
2019-03-16T07:09:47.881Z,4.9
2019-03-16T07:10:38.774Z,4.9
2019-03-16T07:11:29.640Z,4.9
2019-03-16T07:12:20.513Z,4.9
2019-03-16T07:13:11.385Z,4.9
2019-03-16T07:14:02.254Z,4.9
2019-03-16T07:14:53.129Z,4.9
2019-03-16T07:15:44.036Z,4.9
2019-03-16T07:16:34.922Z,4.9
2019-03-16T07:17:25.792Z,4.9
2019-03-16T07:18:16.669Z,4.9
2019-03-16T07:19:07.540Z,4.9
2019-03-16T07:19:58.411Z,4.9
2019-03-16T07:20:49.310Z,4.9
2019-03-16T07:21:40.179Z,4.9
2019-03-16T07:22:31.049Z,4.9
2019-03-16T07:23:21.944Z,4.9
2019-03-16T07:24:12.850Z,4.9
2019-03-16T07:25:03.726Z,4.9
2019-03-16T07:25:54.654Z,4.9
2019-03-16T07:26:45.582Z,4.9
2019-03-16T07:27:36.445Z,4.9
2019-03-16T07:28:27.322Z,4.9
2019-03-16T07:29:18.187Z,4.9
2019-03-16T07:30:09.060Z,4.9
2019-03-16T07:30:59.974Z,4.9
2019-03-16T07:31:50.846Z,4.9
2019-03-16T07:32:41.712Z,4.9
2019-03-16T07:33:32.585Z,4.9
2019-03-16T07:34:23.452Z,4.9
2019-03-16T07:35:14.318Z,4.9
2019-03-16T07:36:05.217Z,4.9
2019-03-16T07:36:56.083Z,5
2019-03-16T07:37:46.957Z,4.9
2019-03-16T07:38:37.829Z,5
2019-03-16T07:39:28.693Z,5
2019-03-16T07:40:19.563Z,5
2019-03-16T07:41:10.466Z,5
2019-03-16T07:42:01.347Z,5
2019-03-16T07:42:52.214Z,5
2019-03-16T07:43:43.078Z,5
2019-03-16T07:44:33.952Z,5
2019-03-16T07:45:24.827Z,5
2019-03-16T07:46:15.733Z,5
2019-03-16T07:47:06.602Z,5
2019-03-16T07:47:57.470Z,5
2019-03-16T07:48:48.370Z,5
2019-03-16T07:49:39.235Z,5
2019-03-16T07:50:30.107Z,5
2019-03-16T07:51:20.997Z,5
2019-03-16T07:52:11.865Z,5
2019-03-16T07:53:02.736Z,5
2019-03-16T07:53:53.618Z,5
2019-03-16T07:54:44.486Z,5
2019-03-16T07:55:35.352Z,5
2019-03-16T07:56:26.249Z,5
2019-03-16T07:57:17.122Z,5
2019-03-16T07:58:07.988Z,5.1
2019-03-16T07:58:58.852Z,5.1
2019-03-16T07:59:49.727Z,5.1
2019-03-16T08:00:40.594Z,5.1
2019-03-16T08:01:31.488Z,5.1
2019-03-16T08:02:22.354Z,5.1
2019-03-16T08:03:13.235Z,5.1
2019-03-16T08:04:04.107Z,5.1
2019-03-16T08:04:54.975Z,5.1
2019-03-16T08:05:45.843Z,5.1
2019-03-16T08:06:36.743Z,5.1
2019-03-16T08:07:27.622Z,5.1
2019-03-16T08:08:18.489Z,5.1
2019-03-16T08:09:09.469Z,5.1
2019-03-16T08:10:03.042Z,5.1
2019-03-16T08:10:54.360Z,5.1
2019-03-16T08:11:45.258Z,5.1
2019-03-16T08:12:36.124Z,5.1
2019-03-16T08:13:27.003Z,5.1
2019-03-16T08:14:17.871Z,5.1
2019-03-16T08:15:08.754Z,5.1
2019-03-16T08:15:59.634Z,5.1
2019-03-16T08:16:50.530Z,5.1
2019-03-16T08:17:41.398Z,5.1
2019-03-16T08:18:32.270Z,5.1
2019-03-16T08:19:23.145Z,5.1
2019-03-16T08:20:14.016Z,5.1
2019-03-16T08:21:04.877Z,5.1
2019-03-16T08:21:55.805Z,5.1
2019-03-16T08:22:46.681Z,5.1
2019-03-16T08:23:37.578Z,5.1
2019-03-16T08:24:28.471Z,5.2
2019-03-16T08:25:19.344Z,5.2
2019-03-16T08:26:10.209Z,5.2
2019-03-16T08:27:01.083Z,5.2
2019-03-16T08:27:54.264Z,5.2
2019-03-16T08:28:45.558Z,5.2
2019-03-16T08:29:36.421Z,5.2
2019-03-16T08:30:27.288Z,5.2
2019-03-16T08:31:18.164Z,5.2
2019-03-16T08:32:09.031Z,5.2
2019-03-16T08:32:59.930Z,5.2
2019-03-16T08:33:50.798Z,5.2
2019-03-16T08:34:41.668Z,5.2
2019-03-16T08:35:32.537Z,5.2
2019-03-16T08:36:23.403Z,5.2
2019-03-16T08:37:14.376Z,5.2
2019-03-16T08:38:05.291Z,5.2
2019-03-16T08:38:56.159Z,5.2
2019-03-16T08:39:47.041Z,5.2
2019-03-16T08:40:37.912Z,5.2
2019-03-16T08:41:28.780Z,5.2
2019-03-16T08:42:19.652Z,5.2
2019-03-16T08:43:10.547Z,5.2
2019-03-16T08:44:01.448Z,5.2
2019-03-16T08:44:52.337Z,5.2
2019-03-16T08:45:43.211Z,5.3
2019-03-16T08:46:34.102Z,5.3
2019-03-16T08:47:25.042Z,5.3
2019-03-16T08:48:22.509Z,5.3
2019-03-16T08:49:11.763Z,5.3
2019-03-16T08:50:02.625Z,5.3
2019-03-16T08:50:53.501Z,5.3
2019-03-16T08:51:44.372Z,5.3
2019-03-16T08:52:35.246Z,5.3
2019-03-16T08:53:26.139Z,5.3
2019-03-16T08:54:17.011Z,5.3
2019-03-16T08:55:07.876Z,5.3
2019-03-16T08:55:58.744Z,5.3
2019-03-16T08:56:49.619Z,5.3
2019-03-16T08:57:40.484Z,5.3
2019-03-16T08:58:31.381Z,5.3
2019-03-16T08:59:24.395Z,5.3
2019-03-16T09:00:15.466Z,5.3
2019-03-16T09:01:06.333Z,5.3
2019-03-16T09:01:57.197Z,5.3
2019-03-16T09:02:48.063Z,5.3
2019-03-16T09:03:43.728Z,5.3
2019-03-16T09:04:34.809Z,5.3
2019-03-16T09:05:25.704Z,5.3
2019-03-16T09:06:16.577Z,5.3
2019-03-16T09:07:07.448Z,5.3
2019-03-16T09:07:58.349Z,5.3
2019-03-16T09:08:49.213Z,5.3
2019-03-16T09:09:40.091Z,5.3
2019-03-16T09:10:30.959Z,5.3
2019-03-16T09:11:21.834Z,5.3
2019-03-16T09:12:12.700Z,5.3
2019-03-16T09:13:03.633Z,5.3
2019-03-16T09:13:54.498Z,5.3
2019-03-16T09:14:45.364Z,5.4
2019-03-16T09:15:36.232Z,5.4
2019-03-16T09:16:27.100Z,5.4
2019-03-16T09:17:17.965Z,5.4
2019-03-16T09:18:08.834Z,5.4
2019-03-16T09:18:59.727Z,5.4
2019-03-16T09:19:50.593Z,5.4
2019-03-16T09:20:41.465Z,5.4
2019-03-16T09:21:32.335Z,5.4
2019-03-16T09:22:23.205Z,5.4
2019-03-16T09:23:14.071Z,5.4
2019-03-16T09:24:04.963Z,5.4
2019-03-16T09:24:55.831Z,5.4
2019-03-16T09:25:46.704Z,5.4
2019-03-16T09:26:37.569Z,5.4
2019-03-16T09:27:31.296Z,5.4
2019-03-16T09:28:22.530Z,5.4
2019-03-16T09:29:15.079Z,5.4
2019-03-16T09:30:06.145Z,5.4
2019-03-16T09:30:57.011Z,5.4
2019-03-16T09:31:47.879Z,5.4
2019-03-16T09:32:38.744Z,5.4
2019-03-16T09:33:29.644Z,5.4
2019-03-16T09:34:20.534Z,5.4
2019-03-16T09:35:11.403Z,5.4
2019-03-16T09:36:02.276Z,5.4
2019-03-16T09:36:53.147Z,5.4
2019-03-16T09:37:44.030Z,5.4
2019-03-16T09:38:34.948Z,5.4
2019-03-16T09:39:25.818Z,5.4
2019-03-16T09:40:16.686Z,5.4
2019-03-16T09:41:07.562Z,5.4
2019-03-16T09:41:58.433Z,5.4
2019-03-16T09:42:49.301Z,5.5
2019-03-16T09:43:40.164Z,5.5
2019-03-16T09:44:31.303Z,5.5
2019-03-16T09:45:22.172Z,5.5
2019-03-16T09:46:13.040Z,5.5
2019-03-16T09:47:03.910Z,5.5
2019-03-16T09:47:54.786Z,5.5
2019-03-16T09:48:45.649Z,5.5
2019-03-16T09:49:36.555Z,5.5
2019-03-16T09:50:32.428Z,5.5
2019-03-16T09:51:23.295Z,5.5
2019-03-16T09:52:14.164Z,5.5
2019-03-16T09:53:05.030Z,5.5
2019-03-16T09:53:55.900Z,5.5
2019-03-16T09:54:46.804Z,5.5
2019-03-16T09:55:37.676Z,5.5
2019-03-16T09:56:28.553Z,5.5
2019-03-16T09:57:19.423Z,5.5
2019-03-16T09:58:10.290Z,5.5
2019-03-16T09:59:01.179Z,5.5
2019-03-16T09:59:52.086Z,5.5
2019-03-16T10:00:42.960Z,5.6
2019-03-16T10:01:33.833Z,5.6
2019-03-16T10:02:24.707Z,5.6
2019-03-16T10:03:15.586Z,5.6
2019-03-16T10:04:06.475Z,5.6
2019-03-16T10:04:57.374Z,5.6
2019-03-16T10:05:48.243Z,5.6
2019-03-16T10:06:39.111Z,5.6
2019-03-16T10:07:29.979Z,5.6
2019-03-16T10:08:20.842Z,5.6
2019-03-16T10:09:11.704Z,5.6
2019-03-16T10:10:02.610Z,5.6
2019-03-16T10:10:53.546Z,5.6
2019-03-16T10:11:44.419Z,5.6
2019-03-16T10:12:35.316Z,5.6
2019-03-16T10:13:26.182Z,5.6
2019-03-16T10:14:17.052Z,5.6
2019-03-16T10:15:07.958Z,5.6
2019-03-16T10:15:58.832Z,5.6
2019-03-16T10:16:49.705Z,5.6
2019-03-16T10:17:40.570Z,5.6
2019-03-16T10:18:31.439Z,5.6
2019-03-16T10:19:22.308Z,5.6
2019-03-16T10:20:13.213Z,5.6
2019-03-16T10:21:04.081Z,5.6
2019-03-16T10:21:54.951Z,5.6
2019-03-16T10:22:45.826Z,5.6
2019-03-16T10:23:36.694Z,5.6
2019-03-16T10:24:27.577Z,5.6
2019-03-16T10:25:18.475Z,5.6
2019-03-16T10:26:09.346Z,5.6
2019-03-16T10:27:00.214Z,5.6
2019-03-16T10:27:51.086Z,5.6
2019-03-16T10:28:43.779Z,5.6
2019-03-16T10:29:34.885Z,5.6
2019-03-16T10:30:25.784Z,5.6
2019-03-16T10:31:16.656Z,5.6
2019-03-16T10:32:07.545Z,5.6
2019-03-16T10:32:58.486Z,5.6
2019-03-16T10:33:49.356Z,5.6
2019-03-16T10:34:40.244Z,5.6
2019-03-16T10:35:31.164Z,5.6
2019-03-16T10:36:22.037Z,5.6
2019-03-16T10:37:12.911Z,5.6
2019-03-16T10:38:03.807Z,5.6
2019-03-16T10:38:54.692Z,5.6
2019-03-16T10:39:45.556Z,5.6
2019-03-16T10:40:36.455Z,5.6
2019-03-16T10:41:27.329Z,5.6
2019-03-16T10:42:18.236Z,5.6
2019-03-16T10:43:09.100Z,5.6
2019-03-16T10:43:59.980Z,5.6
2019-03-16T10:44:50.850Z,5.6
2019-03-16T10:45:41.741Z,5.6
2019-03-16T10:46:32.612Z,5.6
2019-03-16T10:47:23.478Z,5.6
2019-03-16T10:48:14.371Z,5.6
2019-03-16T10:49:05.242Z,5.6
2019-03-16T10:49:56.110Z,5.6
2019-03-16T10:50:47.038Z,5.6
2019-03-16T10:51:37.930Z,5.6
2019-03-16T10:52:28.797Z,5.6
2019-03-16T10:53:19.669Z,5.3
2019-03-16T10:54:10.538Z,4.9
2019-03-16T10:55:01.410Z,4.9
2019-03-16T10:55:52.328Z,5.2
2019-03-16T10:56:43.226Z,5.4
2019-03-16T10:57:34.112Z,5.6
2019-03-16T10:58:25.001Z,5.6
2019-03-16T10:59:15.868Z,5.6
2019-03-16T11:00:06.739Z,5.6
2019-03-16T11:00:57.688Z,5.6
2019-03-16T11:01:48.558Z,5.6
2019-03-16T11:02:39.434Z,5.6
2019-03-16T11:03:30.308Z,5.6
2019-03-16T11:04:21.179Z,5.6
2019-03-16T11:05:12.054Z,5.6
2019-03-16T11:06:02.958Z,5.6
2019-03-16T11:06:53.824Z,5.6
2019-03-16T11:07:44.690Z,5.6
2019-03-16T11:08:35.563Z,5.6
2019-03-16T11:09:26.787Z,5.6
2019-03-16T11:10:17.740Z,5.6
2019-03-16T11:11:08.602Z,5.6
2019-03-16T11:11:59.497Z,5.6
2019-03-16T11:12:50.365Z,5.6
2019-03-16T11:13:41.231Z,5.6
2019-03-16T11:14:32.098Z,5.6
2019-03-16T11:15:22.965Z,5.6
2019-03-16T11:16:13.879Z,5.6
2019-03-16T11:17:04.746Z,5.6
2019-03-16T11:17:55.611Z,5.6
2019-03-16T11:18:46.476Z,5.6
2019-03-16T11:19:37.360Z,5.6
2019-03-16T11:20:28.225Z,5.6
2019-03-16T11:21:19.108Z,5.6
2019-03-16T11:22:10.009Z,5.6
2019-03-16T11:23:00.880Z,5.6
2019-03-16T11:23:51.751Z,5.6
2019-03-16T11:24:42.615Z,5.6
2019-03-16T11:25:33.486Z,5.6
2019-03-16T11:26:24.356Z,5.6
2019-03-16T11:27:17.084Z,5.6
2019-03-16T11:28:08.194Z,5.6
2019-03-16T11:29:08.362Z,5.6
2019-03-16T11:29:54.873Z,5.6
2019-03-16T11:30:45.751Z,5.6
2019-03-16T11:31:36.773Z,5.6
2019-03-16T11:32:27.711Z,5.6
2019-03-16T11:33:18.575Z,5.6
2019-03-16T11:34:09.515Z,5.6
2019-03-16T11:35:00.399Z,5.6
2019-03-16T11:35:51.275Z,5.6
2019-03-16T11:36:42.151Z,5.6
2019-03-16T11:37:33.053Z,5.6
2019-03-16T11:38:23.925Z,5.6
2019-03-16T11:39:14.796Z,5.6
2019-03-16T11:40:05.665Z,5.6
2019-03-16T11:40:56.535Z,5.6
2019-03-16T11:41:47.401Z,5.6
2019-03-16T11:42:38.301Z,5.6
2019-03-16T11:43:29.189Z,5.6
2019-03-16T11:44:20.060Z,5.6
2019-03-16T11:45:10.930Z,5.6
2019-03-16T11:46:01.806Z,5.6